createdAt,value
2018-12-21T00:02:12.711Z,86.50
2018-12-21T00:04:41.359Z,86.70
2018-12-21T00:07:10.136Z,86.70
2018-12-21T00:09:38.855Z,86.50
2018-12-21T00:12:08.618Z,86.10
2018-12-21T00:14:37.330Z,86.20
2018-12-21T00:17:06.268Z,86.00
2018-12-21T00:19:34.975Z,85.70
2018-12-21T00:22:03.883Z,85.60
2018-12-21T00:24:32.923Z,85.80
2018-12-21T00:27:04.811Z,85.50
2018-12-21T00:35:43.019Z,84.70
2018-12-21T00:38:23.746Z,84.60
2018-12-21T00:42:04.250Z,84.70
2018-12-21T00:44:39.021Z,84.00
2018-12-21T00:47:11.335Z,84.10
2018-12-21T00:49:40.184Z,83.80
2018-12-21T00:52:09.068Z,83.50
2018-12-21T00:54:38.094Z,83.10
2018-12-21T01:03:09.919Z,83.10
2018-12-21T01:05:38.797Z,83.00
2018-12-21T01:08:07.681Z,82.60
2018-12-21T01:10:36.795Z,83.40
2018-12-21T01:13:06.298Z,82.70
2018-12-21T01:15:36.017Z,82.50
2018-12-21T01:18:06.770Z,82.60
2018-12-21T01:20:35.525Z,82.20
2018-12-21T01:23:06.331Z,82.30
2018-12-21T01:25:35.187Z,82.50
2018-12-21T01:28:06.326Z,81.80
2018-12-21T01:30:35.157Z,82.20
2018-12-21T01:33:06.026Z,82.40
2018-12-21T01:35:34.798Z,81.90
2018-12-21T01:38:03.667Z,81.50
2018-12-21T01:40:32.371Z,81.60
2018-12-21T01:43:03.861Z,81.50
2018-12-21T01:45:32.564Z,81.70
2018-12-21T01:48:01.334Z,81.80
2018-12-21T01:50:31.102Z,81.70
2018-12-21T01:52:59.801Z,81.30
2018-12-21T01:55:30.513Z,81.50
2018-12-21T01:58:06.820Z,81.30
2018-12-21T02:00:38.659Z,81.10
2018-12-21T02:03:11.445Z,81.30
2018-12-21T02:05:40.172Z,81.00
2018-12-21T02:08:08.920Z,80.80
2018-12-21T02:10:37.814Z,81.20
2018-12-21T02:13:06.888Z,81.00
2018-12-21T02:15:36.657Z,81.00
2018-12-21T02:18:11.326Z,80.50
2018-12-21T02:20:45.967Z,80.90
2018-12-21T02:23:15.653Z,80.60
2018-12-21T02:25:49.065Z,80.50
2018-12-21T02:28:17.733Z,80.40
2018-12-21T02:30:48.482Z,81.00
2018-12-21T02:33:21.437Z,80.90
2018-12-21T02:35:50.204Z,80.70
2018-12-21T02:38:24.768Z,80.70
2018-12-21T02:40:55.509Z,80.40
2018-12-21T02:43:26.279Z,80.30
2018-12-21T02:45:56.972Z,81.00
2018-12-21T02:48:25.656Z,81.00
2018-12-21T02:50:55.363Z,81.10
2018-12-21T02:53:32.106Z,80.70
2018-12-21T02:56:01.823Z,80.60
2018-12-21T02:58:41.075Z,80.80
2018-12-21T03:01:10.932Z,81.00
2018-12-21T03:03:44.917Z,81.70
2018-12-21T03:06:18.749Z,81.50
2018-12-21T03:08:52.278Z,80.70
2018-12-21T03:11:20.998Z,80.70
2018-12-21T03:14:00.914Z,80.70
2018-12-21T03:16:33.343Z,81.00
2018-12-21T03:19:02.089Z,81.00
2018-12-21T03:21:30.794Z,81.00
2018-12-21T03:24:06.424Z,80.70
2018-12-21T03:26:38.682Z,80.60
2018-12-21T03:29:12.225Z,80.60
2018-12-21T03:31:42.978Z,80.60
2018-12-21T03:34:15.645Z,80.40
2018-12-21T03:36:45.635Z,80.70
2018-12-21T03:39:14.333Z,80.40
2018-12-21T03:41:42.984Z,80.60
2018-12-21T03:44:17.315Z,80.70
2018-12-21T03:46:46.014Z,80.80
2018-12-21T03:49:24.866Z,80.90
2018-12-21T03:51:53.530Z,81.40
2018-12-21T03:54:23.288Z,81.70
2018-12-21T03:56:54.134Z,81.50
2018-12-21T03:59:28.277Z,81.30
2018-12-21T04:02:01.410Z,81.50
2018-12-21T04:04:31.151Z,81.00
2018-12-21T04:06:59.869Z,81.00
2018-12-21T04:09:28.519Z,81.50
2018-12-21T04:11:57.209Z,80.80
2018-12-21T04:14:31.698Z,81.10
2018-12-21T04:17:04.229Z,80.90
2018-12-21T04:19:38.858Z,81.00
2018-12-21T04:22:08.692Z,80.70
2018-12-21T04:24:37.386Z,80.60
2018-12-21T04:27:06.383Z,80.30
2018-12-21T04:29:37.170Z,80.10
2018-12-21T04:32:09.177Z,79.60
2018-12-21T04:34:41.922Z,79.60
2018-12-21T04:37:10.606Z,79.20
2018-12-21T04:39:39.335Z,79.60
2018-12-21T04:42:09.069Z,79.40
2018-12-21T04:44:37.779Z,79.70
2018-12-21T04:47:09.471Z,79.80
2018-12-21T04:49:43.805Z,79.60
2018-12-21T04:52:14.707Z,79.20
2018-12-21T04:54:43.382Z,79.10
2018-12-21T04:57:12.111Z,79.50
2018-12-21T04:59:40.849Z,79.30
2018-12-21T05:02:09.796Z,79.60
2018-12-21T05:04:52.114Z,79.20
2018-12-21T05:07:25.121Z,79.60
2018-12-21T05:12:36.428Z,79.80
2018-12-21T05:15:05.525Z,79.70
2018-12-21T05:17:36.383Z,79.60
2018-12-21T05:20:10.473Z,80.00
2018-12-21T05:22:40.220Z,79.70
2018-12-21T05:25:11.121Z,80.60
2018-12-21T05:27:40.827Z,79.60
2018-12-21T05:30:11.038Z,79.80
2018-12-21T05:32:39.733Z,78.80
2018-12-21T05:35:08.471Z,78.90
2018-12-21T05:37:37.328Z,78.60
2018-12-21T05:40:07.242Z,79.00
2018-12-21T05:42:39.971Z,79.10
2018-12-21T05:45:08.860Z,79.10
2018-12-21T05:47:43.585Z,78.70
2018-12-21T05:50:18.134Z,78.40
2018-12-21T05:52:48.797Z,78.70
2018-12-21T05:55:20.877Z,78.70
2018-12-21T05:57:53.496Z,79.00
2018-12-21T06:00:24.304Z,78.40
2018-12-21T06:05:35.615Z,78.50
2018-12-21T06:08:05.548Z,78.80
2018-12-21T06:10:39.934Z,78.20
2018-12-21T06:13:09.731Z,78.00
2018-12-21T06:15:39.473Z,78.30
2018-12-21T06:18:09.257Z,78.00
2018-12-21T06:20:40.027Z,78.10
2018-12-21T06:23:20.158Z,77.80
2018-12-21T06:25:53.169Z,77.40
2018-12-21T06:28:23.963Z,77.60
2018-12-21T06:30:52.660Z,78.20
2018-12-21T06:33:23.499Z,78.80
2018-12-21T06:35:52.259Z,77.90
2018-12-21T06:38:28.278Z,78.60
2018-12-21T06:40:57.149Z,78.00
2018-12-21T06:43:31.775Z,77.90
2018-12-21T06:46:01.601Z,77.60
2018-12-21T06:48:41.280Z,77.60
2018-12-21T06:51:15.487Z,77.50
2018-12-21T06:53:51.626Z,77.60
2018-12-21T06:56:22.530Z,77.60
2018-12-21T06:58:54.578Z,78.50
2018-12-21T07:01:25.679Z,78.30
2018-12-21T07:03:57.792Z,77.70
2018-12-21T07:06:26.542Z,77.20
2018-12-21T07:09:02.366Z,77.30
2018-12-21T07:11:33.091Z,77.10
2018-12-21T07:14:01.972Z,76.40
2018-12-21T07:16:35.270Z,76.90
2018-12-21T07:19:05.366Z,76.60
2018-12-21T07:21:35.227Z,77.20
2018-12-21T07:24:05.047Z,76.90
2018-12-21T07:26:38.319Z,77.00
2018-12-21T07:29:08.281Z,76.60
2018-12-21T07:31:37.016Z,76.40
2018-12-21T07:34:11.533Z,76.70
2018-12-21T07:36:42.219Z,76.30
2018-12-21T07:39:13.155Z,76.40
2018-12-21T07:41:45.338Z,76.20
2018-12-21T07:44:16.242Z,76.70
2018-12-21T07:46:45.108Z,76.40
2018-12-21T07:49:13.874Z,76.60
2018-12-21T07:51:46.832Z,76.70
2018-12-21T07:54:16.722Z,76.50
2018-12-21T07:56:52.500Z,76.80
2018-12-21T07:59:24.556Z,76.30
2018-12-21T08:01:55.443Z,76.40
2018-12-21T08:04:30.336Z,75.90
2018-12-21T08:07:00.380Z,75.80
2018-12-21T08:09:32.285Z,77.00
2018-12-21T08:12:06.730Z,76.40
2018-12-21T08:14:41.348Z,76.30
2018-12-21T08:17:23.710Z,76.70
2018-12-21T08:19:53.210Z,76.00
2018-12-21T08:22:21.955Z,75.80
2018-12-21T08:24:52.818Z,75.80
2018-12-21T08:27:28.532Z,75.90
2018-12-21T08:29:57.434Z,75.20
2018-12-21T08:32:27.123Z,75.10
2018-12-21T08:34:55.870Z,75.00
2018-12-21T08:37:24.725Z,74.10
2018-12-21T08:39:54.619Z,73.70
2018-12-21T08:42:28.989Z,73.00
2018-12-21T08:45:01.608Z,72.00
2018-12-21T08:47:30.401Z,71.40
2018-12-21T08:50:07.204Z,69.70
2018-12-21T08:52:36.957Z,68.60
2018-12-21T08:55:06.441Z,68.00
2018-12-21T08:57:35.211Z,67.30
2018-12-21T09:00:15.006Z,66.10
2018-12-21T09:02:46.422Z,64.90
2018-12-21T09:05:15.237Z,63.30
2018-12-21T09:07:44.056Z,63.10
2018-12-21T09:10:18.688Z,62.60
2018-12-21T09:12:48.697Z,62.60
2018-12-21T09:15:20.234Z,62.40
2018-12-21T09:17:49.969Z,61.10
2018-12-21T09:20:19.065Z,61.50
2018-12-21T09:22:50.947Z,60.20
2018-12-21T09:25:21.802Z,59.50
2018-12-21T09:27:53.647Z,60.30
2018-12-21T09:33:05.004Z,60.20
2018-12-21T09:35:36.158Z,59.50
2018-12-21T09:38:11.107Z,60.60
2018-12-21T09:40:39.981Z,66.00
2018-12-21T09:43:16.107Z,69.20
2018-12-21T09:45:50.487Z,74.90
2018-12-21T09:48:19.339Z,79.50
2018-12-21T09:50:48.152Z,82.90
2018-12-21T09:53:18.807Z,83.40
2018-12-21T09:55:47.706Z,85.60
2018-12-21T09:58:17.593Z,86.50
2018-12-21T10:00:46.385Z,87.50
2018-12-21T10:03:15.483Z,88.60
2018-12-21T10:05:47.759Z,88.30
2018-12-21T10:08:18.691Z,89.10
2018-12-21T10:10:47.995Z,89.70
2018-12-21T10:13:16.792Z,89.80
2018-12-21T10:15:45.612Z,90.60
2018-12-21T10:18:14.424Z,90.70
2018-12-21T10:20:43.260Z,90.90
2018-12-21T10:43:17.621Z,92.40
2018-12-21T10:45:46.563Z,92.00
2018-12-21T10:48:15.527Z,92.30
2018-12-21T10:50:44.307Z,92.30
2018-12-21T10:53:13.319Z,92.00
2018-12-21T10:55:45.714Z,92.10
2018-12-21T10:58:14.819Z,92.10
2018-12-21T11:00:54.085Z,92.40
2018-12-21T11:03:25.396Z,91.80
2018-12-21T11:05:56.845Z,92.60
2018-12-21T11:14:36.011Z,92.50
2018-12-21T11:19:58.162Z,92.80
2018-12-21T11:25:29.202Z,92.60
2018-12-21T11:27:58.090Z,92.70
2018-12-21T11:30:27.933Z,92.90
2018-12-21T11:32:56.815Z,92.80
2018-12-21T11:35:25.718Z,93.20
2018-12-21T11:37:54.470Z,93.50
2018-12-21T11:40:24.718Z,92.70
2018-12-21T11:42:53.626Z,93.00
2018-12-21T11:45:22.859Z,92.90
2018-12-21T11:47:52.502Z,92.50
2018-12-21T11:50:21.944Z,92.50
2018-12-21T11:52:51.252Z,92.50
2018-12-21T11:55:20.830Z,92.50
2018-12-21T11:57:50.643Z,92.30
2018-12-21T12:03:14.846Z,91.80
2018-12-21T12:05:45.256Z,91.50
2018-12-21T12:08:14.070Z,91.50
2018-12-21T12:10:43.008Z,91.50
2018-12-21T12:13:12.758Z,91.40
2018-12-21T12:15:41.644Z,91.40
2018-12-21T12:18:12.490Z,91.50
2018-12-21T12:20:41.762Z,91.10
2018-12-21T12:23:11.100Z,91.00
2018-12-21T12:25:39.800Z,90.50
2018-12-21T12:28:09.755Z,90.70
2018-12-21T12:30:38.611Z,90.60
2018-12-21T12:33:08.979Z,90.40
2018-12-21T12:35:39.291Z,90.20
2018-12-21T12:38:09.056Z,90.20
2018-12-21T12:40:38.952Z,90.30
2018-12-21T12:43:08.972Z,90.20
2018-12-21T12:45:37.970Z,90.40
2018-12-21T12:48:08.576Z,90.60
2018-12-21T12:50:37.444Z,90.20
2018-12-21T12:53:08.321Z,90.30
2018-12-21T12:55:37.236Z,90.60
2018-12-21T12:58:07.727Z,90.00
2018-12-21T13:03:29.267Z,90.00
2018-12-21T13:05:58.267Z,89.90
2018-12-21T13:08:27.817Z,89.60
2018-12-21T13:10:56.698Z,89.40
2018-12-21T13:13:28.719Z,89.40
2018-12-21T13:15:57.705Z,89.20
2018-12-21T13:18:29.156Z,89.10
2018-12-21T13:20:58.298Z,89.40
2018-12-21T13:23:27.979Z,88.90
2018-12-21T13:25:57.149Z,88.30
2018-12-21T13:28:27.803Z,88.00
2018-12-21T13:30:56.811Z,88.50
2018-12-21T13:33:25.604Z,88.70
2018-12-21T13:35:54.379Z,88.20
2018-12-21T13:38:24.355Z,88.10
2018-12-21T13:40:54.023Z,88.40
2018-12-21T13:43:23.575Z,88.20
2018-12-21T13:45:52.499Z,88.90
2018-12-21T13:48:21.557Z,88.80
2018-12-21T13:50:50.587Z,88.40
2018-12-21T13:53:20.223Z,88.10
2018-12-21T13:55:49.157Z,88.40
2018-12-21T13:58:18.829Z,88.80
2018-12-21T14:03:40.740Z,88.30
2018-12-21T14:06:09.870Z,88.80
2018-12-21T14:08:38.689Z,89.10
2018-12-21T14:11:07.589Z,89.70
2018-12-21T14:13:37.355Z,89.30
2018-12-21T14:16:06.745Z,89.50
2018-12-21T14:18:35.623Z,89.50
2018-12-21T14:21:05.121Z,90.00
2018-12-21T14:23:35.605Z,90.20
2018-12-21T14:26:04.642Z,90.80
2018-12-21T14:28:33.480Z,91.10
2018-12-21T14:31:02.373Z,91.10
2018-12-21T14:33:31.214Z,91.30
2018-12-21T14:36:00.186Z,91.40
2018-12-21T14:38:29.027Z,91.40
2018-12-21T14:40:58.112Z,91.20
2018-12-21T14:43:26.960Z,91.40
2018-12-21T14:45:55.713Z,91.40
2018-12-21T14:48:26.753Z,91.20
2018-12-21T14:50:55.915Z,91.10
2018-12-21T14:53:25.528Z,91.20
2018-12-21T14:55:54.480Z,91.10
2018-12-21T14:58:25.076Z,91.40
2018-12-21T15:03:47.183Z,91.90
2018-12-21T15:06:17.155Z,91.70
2018-12-21T15:08:48.970Z,91.40
2018-12-21T15:11:17.977Z,91.50
2018-12-21T15:13:49.475Z,91.30
2018-12-21T15:16:18.488Z,91.40
2018-12-21T15:18:49.589Z,91.70
2018-12-21T15:21:18.536Z,91.50
2018-12-21T15:23:49.476Z,91.50
2018-12-21T15:26:19.302Z,91.40
2018-12-21T15:28:48.321Z,91.40
2018-12-21T15:31:17.506Z,91.40
2018-12-21T15:33:49.135Z,91.30
2018-12-21T15:36:18.238Z,91.40
2018-12-21T15:38:48.762Z,91.60
2018-12-21T15:41:17.751Z,92.00
2018-12-21T15:43:48.713Z,91.90
2018-12-21T15:46:18.048Z,91.90
2018-12-21T15:48:46.983Z,92.10
2018-12-21T15:51:17.228Z,92.40
2018-12-21T15:53:47.598Z,92.50
2018-12-21T15:56:16.641Z,92.40
2018-12-21T15:58:49.421Z,92.30
2018-12-21T16:04:10.961Z,91.90
2018-12-21T16:06:39.963Z,91.80
2018-12-21T16:09:09.365Z,91.70
2018-12-21T16:11:38.396Z,91.50
2018-12-21T16:14:07.322Z,91.40
2018-12-21T16:16:36.366Z,91.00
2018-12-21T16:19:05.598Z,91.10
2018-12-21T16:21:34.850Z,90.80
2018-12-21T16:24:06.946Z,90.90
2018-12-21T16:26:34.895Z,90.70
2018-12-21T16:29:04.136Z,90.80
2018-12-21T16:31:33.149Z,90.70
2018-12-21T16:34:03.106Z,90.60
2018-12-21T16:36:32.454Z,90.50
2018-12-21T16:39:01.442Z,90.40
2018-12-21T16:41:30.650Z,90.40
2018-12-21T16:44:03.209Z,90.60
2018-12-21T16:46:32.126Z,90.50
2018-12-21T16:49:00.992Z,90.40
2018-12-21T16:51:30.301Z,90.60
2018-12-21T16:54:00.652Z,90.40
2018-12-21T16:56:29.893Z,90.50
2018-12-21T16:58:59.042Z,90.50
2018-12-21T17:04:21.846Z,90.20
2018-12-21T17:06:52.356Z,90.20
2018-12-21T17:09:22.573Z,90.60
2018-12-21T17:11:51.959Z,90.40
2018-12-21T17:14:21.107Z,90.40
2018-12-21T17:16:50.146Z,90.50
2018-12-21T17:19:21.064Z,90.40
2018-12-21T17:21:49.789Z,90.30
2018-12-21T17:24:18.748Z,90.50
2018-12-21T17:26:49.780Z,90.60
2018-12-21T17:29:18.848Z,90.40
2018-12-21T17:31:48.102Z,90.50
2018-12-21T17:34:17.077Z,90.40
2018-12-21T17:36:46.343Z,90.60
2018-12-21T17:39:15.229Z,90.50
2018-12-21T17:41:44.275Z,90.50
2018-12-21T17:44:14.318Z,90.60
2018-12-21T17:46:45.510Z,90.60
2018-12-21T17:49:14.660Z,90.70
2018-12-21T17:51:43.805Z,90.80
2018-12-21T17:54:12.844Z,90.60
2018-12-21T17:56:41.816Z,90.50
2018-12-21T17:59:11.431Z,90.60
2018-12-21T18:04:33.336Z,90.50
2018-12-21T18:07:02.273Z,90.70
2018-12-21T18:09:34.066Z,90.60
2018-12-21T18:12:03.023Z,90.80
2018-12-21T18:14:31.981Z,90.70
2018-12-21T18:17:01.755Z,90.80
2018-12-21T18:19:30.625Z,91.00
2018-12-21T18:22:04.146Z,90.90
2018-12-21T18:24:33.269Z,90.80
2018-12-21T18:27:02.294Z,90.80
2018-12-21T18:29:32.038Z,90.80
2018-12-21T18:32:05.831Z,90.80
2018-12-21T18:34:37.174Z,91.00
2018-12-21T18:37:08.683Z,90.90
2018-12-21T18:39:38.020Z,91.00
2018-12-21T18:42:06.811Z,91.10
2018-12-21T18:44:35.818Z,91.20
2018-12-21T18:47:05.695Z,91.10
2018-12-21T18:49:34.514Z,91.10
2018-12-21T18:52:03.493Z,91.00
2018-12-21T18:54:32.577Z,91.10
2018-12-21T18:57:07.737Z,91.10
2018-12-21T18:59:36.921Z,91.10
2018-12-21T19:04:58.569Z,91.10
2018-12-21T19:07:27.353Z,91.00
2018-12-21T19:09:56.342Z,91.10
2018-12-21T19:12:25.467Z,91.10
2018-12-21T19:14:55.308Z,91.20
2018-12-21T19:17:24.243Z,91.10
2018-12-21T19:19:53.165Z,91.20
2018-12-21T19:22:22.266Z,91.30
2018-12-21T19:24:51.201Z,91.30
2018-12-21T19:27:20.237Z,91.20
2018-12-21T19:29:51.885Z,91.00
2018-12-21T19:32:20.943Z,91.10
2018-12-21T19:34:49.968Z,91.10
2018-12-21T19:37:18.845Z,91.20
2018-12-21T19:39:49.781Z,91.10
2018-12-21T19:42:18.901Z,91.20
2018-12-21T19:44:47.829Z,91.20
2018-12-21T19:47:16.682Z,91.40
2018-12-21T19:49:45.538Z,91.40
2018-12-21T19:52:15.323Z,91.50
2018-12-21T19:54:44.512Z,91.40
2018-12-21T19:57:14.176Z,91.50
2018-12-21T19:59:44.174Z,91.40
2018-12-21T20:05:07.099Z,91.50
2018-12-21T20:07:36.135Z,91.50
2018-12-21T20:10:05.991Z,91.40
2018-12-21T20:12:36.095Z,91.30
2018-12-21T20:15:05.167Z,91.30
2018-12-21T20:17:34.219Z,91.30
2018-12-21T20:20:03.185Z,91.30
2018-12-21T20:22:33.493Z,91.40
2018-12-21T20:25:04.523Z,91.40
2018-12-21T20:27:33.512Z,91.40
2018-12-21T20:30:02.583Z,91.50
2018-12-21T20:32:32.694Z,91.50
2018-12-21T20:35:01.651Z,91.50
2018-12-21T20:37:30.441Z,91.50
2018-12-21T20:39:59.317Z,91.40
2018-12-21T20:42:30.041Z,91.50
2018-12-21T20:44:58.889Z,91.50
2018-12-21T20:47:27.740Z,91.50
2018-12-21T20:49:56.521Z,91.50
2018-12-21T20:52:25.408Z,91.50
2018-12-21T20:54:54.859Z,91.40
2018-12-21T20:57:26.293Z,91.50
2018-12-21T20:59:55.671Z,91.40
2018-12-21T21:05:17.888Z,91.30
2018-12-21T21:07:46.731Z,91.30
2018-12-21T21:10:15.800Z,91.40
2018-12-21T21:12:44.878Z,91.40
2018-12-21T21:15:14.293Z,91.40
2018-12-21T21:17:43.288Z,91.50
2018-12-21T21:20:15.286Z,91.50
2018-12-21T21:22:44.376Z,91.60
2018-12-21T21:25:13.774Z,91.60
2018-12-21T21:27:42.840Z,91.60
2018-12-21T21:30:15.654Z,91.40
2018-12-21T21:32:44.605Z,91.50
2018-12-21T21:35:13.668Z,91.50
2018-12-21T21:37:42.493Z,91.30
2018-12-21T21:40:15.703Z,91.40
2018-12-21T21:42:45.113Z,91.30
2018-12-21T21:45:14.846Z,91.30
2018-12-21T21:47:43.735Z,91.30
2018-12-21T21:50:12.804Z,91.30
2018-12-21T21:52:42.945Z,91.30
2018-12-21T21:55:11.826Z,91.30
2018-12-21T21:57:40.637Z,91.20
2018-12-21T22:03:02.389Z,91.20
2018-12-21T22:05:31.362Z,91.10
2018-12-21T22:08:00.218Z,91.20
2018-12-21T22:10:29.530Z,91.20
2018-12-21T22:12:58.537Z,91.20
2018-12-21T22:15:27.400Z,91.10
2018-12-21T22:17:57.303Z,91.10
2018-12-21T22:20:26.267Z,91.20
2018-12-21T22:22:55.192Z,91.40
2018-12-21T22:25:24.182Z,91.20
2018-12-21T22:27:53.210Z,91.30
2018-12-21T22:30:22.279Z,91.30
2018-12-21T22:32:52.318Z,91.20
2018-12-21T22:35:21.319Z,91.30
2018-12-21T22:37:50.126Z,91.30
2018-12-21T22:40:18.970Z,91.40
2018-12-21T22:42:47.954Z,91.50
2018-12-21T22:45:16.704Z,91.50
2018-12-21T22:47:45.449Z,91.50
2018-12-21T22:50:14.284Z,91.60
2018-12-21T22:52:43.250Z,91.50
2018-12-21T22:55:13.333Z,91.50
2018-12-21T22:57:42.173Z,91.50
2018-12-21T23:03:05.107Z,91.60
2018-12-21T23:05:33.800Z,91.60
2018-12-21T23:08:04.063Z,91.70
2018-12-21T23:10:33.035Z,91.70
2018-12-21T23:13:06.627Z,91.80
2018-12-21T23:15:35.604Z,91.70
2018-12-21T23:18:06.236Z,91.80
2018-12-21T23:20:35.021Z,91.90
2018-12-21T23:23:05.412Z,92.20
2018-12-21T23:25:34.378Z,92.60
2018-12-21T23:28:05.603Z,92.90
2018-12-21T23:30:35.538Z,93.00
2018-12-21T23:33:06.055Z,93.20
2018-12-21T23:35:35.110Z,93.40
2018-12-21T23:38:06.124Z,93.50
2018-12-21T23:40:34.862Z,93.80
2018-12-21T23:43:05.054Z,93.80
2018-12-21T23:45:33.982Z,93.90
2018-12-21T23:48:03.457Z,93.80
2018-12-21T23:50:32.894Z,93.70
2018-12-21T23:53:02.126Z,93.70
2018-12-21T23:55:31.043Z,93.60
2018-12-21T23:58:00.919Z,93.50
